createdAt,value
2023-06-28T00:01:23.643Z,99568.78
2023-06-28T00:06:26.412Z,99580.05
2023-06-28T00:11:29.628Z,99579.11
2023-06-28T00:16:32.731Z,99577.23
2023-06-28T00:21:35.571Z,99576.34
2023-06-28T00:26:38.346Z,99584.08
2023-06-28T00:31:41.167Z,99581.84
2023-06-28T00:36:43.991Z,99580.77
2023-06-28T00:41:46.750Z,99575.39
2023-06-28T00:46:50.032Z,99569.27
2023-06-28T00:51:52.842Z,99574.90
2023-06-28T00:56:55.656Z,99571.80
2023-06-28T01:01:58.643Z,99565.20
2023-06-28T01:07:01.876Z,99562.16
2023-06-28T01:12:05.774Z,99559.96
2023-06-28T01:17:08.641Z,99552.94
2023-06-28T01:22:14.226Z,99558.31
2023-06-28T01:27:17.205Z,99562.51
2023-06-28T01:32:21.108Z,99567.16
2023-06-28T01:37:24.147Z,99567.34
2023-06-28T01:42:27.566Z,99564.84
2023-06-28T01:47:30.455Z,99563.00
2023-06-28T01:52:33.338Z,99562.14
2023-06-28T01:57:36.120Z,99552.30
2023-06-28T02:02:38.937Z,99550.85
2023-06-28T02:07:42.096Z,99548.25
2023-06-28T02:12:45.229Z,99552.40
2023-06-28T02:17:49.222Z,99550.30
2023-06-28T02:22:52.163Z,99545.68
2023-06-28T02:27:54.967Z,99535.02
2023-06-28T02:32:57.784Z,99532.01
2023-06-28T02:38:00.636Z,99519.86
2023-06-28T02:43:03.505Z,99510.73
2023-06-28T02:48:06.420Z,99505.12
2023-06-28T02:53:09.873Z,99503.59
2023-06-28T02:58:13.411Z,99500.95
2023-06-28T03:03:16.899Z,99503.08
2023-06-28T03:08:19.796Z,99514.08
2023-06-28T03:13:23.117Z,99521.38
2023-06-28T03:18:25.989Z,99514.46
2023-06-28T03:23:28.775Z,99521.59
2023-06-28T03:28:31.496Z,99527.16
2023-06-28T03:33:34.542Z,99530.73
2023-06-28T03:38:37.356Z,99535.54
2023-06-28T03:43:40.062Z,99538.74
2023-06-28T03:48:42.837Z,99545.96
2023-06-28T03:53:45.618Z,99541.89
2023-06-28T03:58:50.934Z,99543.86
2023-06-28T04:03:53.769Z,99539.42
2023-06-28T04:08:56.492Z,99540.27
2023-06-28T04:13:59.217Z,99545.18
2023-06-28T04:19:02.005Z,99552.12
2023-06-28T04:24:04.905Z,99553.84
2023-06-28T04:29:07.713Z,99561.09
2023-06-28T04:34:10.563Z,99562.69
2023-06-28T04:39:13.669Z,99565.44
2023-06-28T04:44:17.245Z,99570.20
2023-06-28T04:49:20.061Z,99571.97
2023-06-28T04:54:22.748Z,99572.57
2023-06-28T04:59:25.487Z,99574.26
2023-06-28T05:04:28.294Z,99577.17
2023-06-28T05:09:31.728Z,99571.92
2023-06-28T05:14:35.042Z,99566.27
2023-06-28T05:19:37.916Z,99561.45
2023-06-28T05:24:40.723Z,99553.91
2023-06-28T05:29:43.463Z,99560.42
2023-06-28T05:34:46.129Z,99556.60
2023-06-28T05:39:48.923Z,99561.11
2023-06-28T05:44:51.629Z,99560.25
2023-06-28T05:49:54.392Z,99558.10
2023-06-28T05:54:57.072Z,99556.07
2023-06-28T05:59:59.906Z,99562.58
2023-06-28T06:05:05.669Z,99557.56
2023-06-28T06:10:10.631Z,99562.20
2023-06-28T06:15:14.009Z,99557.98
2023-06-28T06:20:16.936Z,99558.15
2023-06-28T06:25:19.993Z,99563.30
2023-06-28T06:30:22.790Z,99562.70
2023-06-28T06:35:26.968Z,99558.65
2023-06-28T06:40:29.768Z,99560.77
2023-06-28T06:45:32.650Z,99567.52
2023-06-28T06:50:35.474Z,99575.81
2023-06-28T06:55:38.298Z,99584.50
2023-06-28T07:00:41.187Z,99586.17
2023-06-28T07:05:44.717Z,99587.59
2023-06-28T07:10:47.818Z,99586.55
2023-06-28T07:15:50.592Z,99587.12
2023-06-28T07:20:53.320Z,99587.66
2023-06-28T07:25:56.097Z,99594.13
2023-06-28T07:31:00.322Z,99594.59
2023-06-28T07:36:03.651Z,99594.48
2023-06-28T07:41:07.687Z,99595.85
2023-06-28T07:46:10.939Z,99600.19
2023-06-28T07:51:13.775Z,99606.83
2023-06-28T07:56:16.682Z,99607.82
2023-06-28T08:01:19.479Z,99607.74
2023-06-28T08:06:22.331Z,99611.94
2023-06-28T08:11:28.181Z,99613.27
2023-06-28T08:16:31.000Z,99617.98
2023-06-28T08:21:33.877Z,99617.09
2023-06-28T08:26:37.475Z,99621.85
2023-06-28T08:31:40.382Z,99618.28
2023-06-28T08:36:43.670Z,99617.46
2023-06-28T08:41:47.042Z,99619.56
2023-06-28T08:46:51.061Z,99623.25
2023-06-28T08:51:55.782Z,99627.14
2023-06-28T08:57:11.362Z,99632.29
2023-06-28T09:02:20.819Z,99631.98
2023-06-28T09:07:24.690Z,99634.81
2023-06-28T09:12:29.500Z,99637.70
2023-06-28T09:17:32.417Z,99637.66
2023-06-28T09:22:35.361Z,99641.88
2023-06-28T09:27:38.217Z,99644.50
2023-06-28T09:32:46.701Z,99645.02
2023-06-28T09:37:51.995Z,99646.70
2023-06-28T09:42:54.836Z,99653.97
2023-06-28T09:48:02.205Z,99654.45
2023-06-28T09:53:14.151Z,99657.72
2023-06-28T09:58:19.402Z,99656.07
2023-06-28T10:03:25.983Z,99663.46
2023-06-28T10:08:29.011Z,99669.14
2023-06-28T10:13:31.942Z,99669.23
2023-06-28T10:18:34.882Z,99669.02
2023-06-28T10:23:40.485Z,99671.48
2023-06-28T10:28:45.295Z,99671.16
2023-06-28T10:33:49.107Z,99672.68
2023-06-28T10:38:52.751Z,99670.45
2023-06-28T10:44:06.748Z,99674.38
2023-06-28T10:49:09.691Z,99674.34
2023-06-28T10:54:16.045Z,99671.80
2023-06-28T10:59:19.899Z,99668.08
2023-06-28T11:04:27.007Z,99671.08
2023-06-28T11:09:29.907Z,99675.61
2023-06-28T11:14:33.488Z,99670.46
2023-06-28T11:19:36.321Z,99674.72
2023-06-28T11:24:39.119Z,99678.24
2023-06-28T11:29:59.940Z,99676.62
2023-06-28T11:35:05.523Z,99678.93
2023-06-28T11:40:09.909Z,99687.04
2023-06-28T11:45:13.910Z,99686.63
2023-06-28T11:50:17.194Z,99686.26
2023-06-28T11:55:20.373Z,99678.14
2023-06-28T12:00:23.468Z,99680.36
2023-06-28T12:05:28.309Z,99676.02
2023-06-28T12:10:36.559Z,99683.26
2023-06-28T12:15:39.508Z,99688.55
2023-06-28T12:20:44.709Z,99695.56
2023-06-28T12:25:48.591Z,99697.22
2023-06-28T12:30:57.658Z,99699.09
2023-06-28T12:36:01.360Z,99703.30
2023-06-28T12:41:07.553Z,99701.23
2023-06-28T12:46:11.690Z,99699.89
2023-06-28T12:51:14.479Z,99704.56
2023-06-28T12:56:17.378Z,99700.77
2023-06-28T13:01:20.205Z,99709.44
2023-06-28T13:06:23.621Z,99719.17
2023-06-28T13:11:31.005Z,99721.89
2023-06-28T13:16:33.897Z,99720.23
2023-06-28T13:21:36.889Z,99716.32
2023-06-28T13:26:39.740Z,99715.91
2023-06-28T13:31:44.581Z,99723.79
2023-06-28T13:36:48.484Z,99718.50
2023-06-28T13:41:51.383Z,99727.06
2023-06-28T13:46:54.260Z,99719.66
2023-06-28T13:51:57.052Z,99721.20
2023-06-28T13:57:00.052Z,99720.70
2023-06-28T14:02:02.958Z,99719.48
2023-06-28T14:07:06.873Z,99720.27
2023-06-28T14:12:10.046Z,99726.48
2023-06-28T14:17:13.013Z,99719.06
2023-06-28T14:22:16.131Z,99722.96
2023-06-28T14:27:18.888Z,99724.49
2023-06-28T14:32:22.481Z,99719.42
2023-06-28T14:37:25.321Z,99720.51
2023-06-28T14:42:28.161Z,99719.08
2023-06-28T14:47:31.042Z,99722.79
2023-06-28T14:52:34.004Z,99730.20
2023-06-28T14:57:36.750Z,99733.86
2023-06-28T15:02:39.701Z,99729.14
2023-06-28T15:07:42.777Z,99736.89
2023-06-28T15:12:45.544Z,99732.72
2023-06-28T15:17:48.408Z,99736.14
2023-06-28T15:22:54.456Z,99732.99
2023-06-28T15:27:57.190Z,99743.05
2023-06-28T15:33:00.106Z,99744.02
2023-06-28T15:38:03.838Z,99736.48
2023-06-28T15:43:06.763Z,99737.35
2023-06-28T15:48:10.089Z,99744.80
2023-06-28T15:53:12.917Z,99745.87
2023-06-28T15:58:15.774Z,99744.16
2023-06-28T16:03:18.962Z,99742.40
2023-06-28T16:08:21.988Z,99745.71
2023-06-28T16:13:25.843Z,99753.20
2023-06-28T16:18:28.659Z,99753.33
2023-06-28T16:23:31.484Z,99760.70
2023-06-28T16:28:34.260Z,99769.20
2023-06-28T16:33:37.753Z,99783.05
2023-06-28T16:38:40.595Z,99784.75
2023-06-28T16:43:43.398Z,99788.52
2023-06-28T16:48:46.390Z,99792.11
2023-06-28T16:53:49.330Z,99794.98
2023-06-28T16:58:52.112Z,99800.56
2023-06-28T17:03:55.470Z,99813.09
2023-06-28T17:08:58.229Z,99820.35
2023-06-28T17:14:01.026Z,99826.43
2023-06-28T17:19:04.920Z,99831.59
2023-06-28T17:24:08.140Z,99831.59
2023-06-28T17:29:11.051Z,99832.67
2023-06-28T17:34:13.910Z,99834.52
2023-06-28T17:39:18.414Z,99839.64
2023-06-28T17:44:21.174Z,99843.11
2023-06-28T17:49:24.400Z,99835.24
2023-06-28T17:54:29.316Z,99842.92
2023-06-28T17:59:32.187Z,99849.81
2023-06-28T18:04:35.209Z,99852.04
2023-06-28T18:09:38.176Z,99855.27
2023-06-28T18:14:43.660Z,99847.83
2023-06-28T18:19:47.054Z,99848.91
2023-06-28T18:24:49.803Z,99848.95
2023-06-28T18:29:52.661Z,99849.30
2023-06-28T18:34:55.473Z,99854.23
2023-06-28T18:39:58.343Z,99858.41
2023-06-28T18:45:01.201Z,99861.63
2023-06-28T18:50:05.054Z,99863.71
2023-06-28T18:55:09.579Z,99868.34
2023-06-28T19:00:16.227Z,99876.94
2023-06-28T19:05:19.140Z,99885.56
2023-06-28T19:10:22.233Z,99894.73
2023-06-28T19:15:25.905Z,99900.58
2023-06-28T19:20:28.649Z,99910.36
2023-06-28T19:25:31.683Z,99907.17
2023-06-28T19:30:34.725Z,99909.53
2023-06-28T19:35:37.689Z,99912.21
2023-06-28T19:40:40.664Z,99909.86
2023-06-28T19:45:44.922Z,99914.37
2023-06-28T19:50:48.015Z,99920.55
2023-06-28T19:55:50.816Z,99922.21
2023-06-28T20:00:54.369Z,99918.36
2023-06-28T20:05:57.231Z,99930.64
2023-06-28T20:11:00.021Z,99932.36
2023-06-28T20:16:03.044Z,99935.51
2023-06-28T20:21:05.966Z,99940.85
2023-06-28T20:26:08.758Z,99949.36
2023-06-28T20:31:12.102Z,99959.41
2023-06-28T20:36:14.960Z,99959.25
2023-06-28T20:41:26.014Z,99965.24
2023-06-28T20:46:29.246Z,99968.91
2023-06-28T20:51:31.959Z,99974.23
2023-06-28T20:56:34.705Z,99967.95
2023-06-28T21:01:37.436Z,99961.73
2023-06-28T21:06:41.233Z,99965.03
2023-06-28T21:11:43.989Z,99969.06
2023-06-28T21:16:47.024Z,99966.10
2023-06-28T21:21:49.886Z,99963.32
2023-06-28T21:26:52.627Z,99963.00
2023-06-28T21:31:55.424Z,99962.17
2023-06-28T21:36:58.194Z,99966.48
2023-06-28T21:42:01.032Z,99969.23
2023-06-28T21:47:04.089Z,99960.65
2023-06-28T21:52:07.206Z,99959.92
2023-06-28T21:57:10.087Z,99966.00
2023-06-28T22:02:12.774Z,99965.15
2023-06-28T22:07:15.766Z,99962.73
2023-06-28T22:12:18.447Z,99962.54
2023-06-28T22:17:21.354Z,99959.05
2023-06-28T22:22:24.125Z,99960.34
2023-06-28T22:27:27.165Z,99961.10
2023-06-28T22:32:30.048Z,99961.76
2023-06-28T22:37:32.918Z,99964.45
2023-06-28T22:42:35.734Z,99974.58
2023-06-28T22:47:38.404Z,99983.90
2023-06-28T22:52:45.622Z,99983.85
2023-06-28T22:57:49.356Z,99983.88
2023-06-28T23:02:52.240Z,99982.40
2023-06-28T23:07:55.590Z,99981.70
2023-06-28T23:12:58.345Z,99976.73
2023-06-28T23:18:02.086Z,99975.15
2023-06-28T23:23:05.432Z,99976.80
2023-06-28T23:28:08.167Z,99971.48
2023-06-28T23:33:15.327Z,99968.45
2023-06-28T23:38:18.324Z,99964.84
2023-06-28T23:43:21.047Z,99962.48
2023-06-28T23:48:27.019Z,99965.23
2023-06-28T23:53:29.828Z,99968.64
2023-06-28T23:58:32.480Z,99960.51
